Time;durP1;ratioP1;P1;durP2;ratioP2;P2;SDS_P1;SDS_P2;PMS_P1;PMS_P2;Temp;Humidity;BMP_temperature;BMP_pressure;BME280_temperature;BME280_humidity;BME280_pressure;Samples;Min_cycle;Max_cycle;Signal;HPM_P1;HPM_P2
2023/03/19 00:00:34;;;;;;;14.50;13.13;;;;;;;7.92;58.00;99781.75;10503573;28;20467;-73
2023/03/19 00:05:36;;;;;;;15.15;13.73;;;;;;;7.94;57.69;99776.50;10502283;28;20535;-73
2023/03/19 00:10:38;;;;;;;14.75;13.35;;;;;;;8.04;57.08;99783.22;10501281;28;20049;-73
2023/03/19 00:15:40;;;;;;;15.13;13.32;;;;;;;7.87;57.91;99783.63;10500961;28;20098;-72
2023/03/19 00:20:42;;;;;;;14.60;13.18;;;;;;;7.94;57.78;99785.22;10501873;28;20135;-72
2023/03/19 00:25:44;;;;;;;14.55;13.15;;;;;;;8.11;57.29;99781.31;10500962;28;20044;-73
2023/03/19 00:30:46;;;;;;;15.40;13.50;;;;;;;7.98;57.61;99784.25;10499992;28;20047;-73
2023/03/19 00:35:47;;;;;;;14.48;13.07;;;;;;;7.71;58.69;99777.09;10499912;28;20040;-74
2023/03/19 00:40:49;;;;;;;14.55;12.85;;;;;;;7.90;57.55;99773.09;10500198;28;20410;-73
2023/03/19 00:45:52;;;;;;;13.38;12.13;;;;;;;8.00;57.15;99773.72;10500016;28;20073;-72
2023/03/19 00:50:55;;;;;;;14.02;12.55;;;;;;;7.88;57.52;99774.03;10499875;28;20037;-73
2023/03/19 00:55:57;;;;;;;13.55;12.35;;;;;;;7.66;58.40;99778.94;10499552;28;20047;-75
2023/03/19 01:00:59;;;;;;;14.07;12.77;;;;;;;7.69;58.49;99789.31;10499365;28;20040;-73
2023/03/19 01:06:02;;;;;;;14.05;12.75;;;;;;;7.68;58.43;99785.00;10481495;28;20037;-73
2023/03/19 01:11:15;;;;;;;14.27;12.88;;;;;;;7.56;59.12;99783.53;10500113;28;20492;-73
2023/03/19 01:16:17;;;;;;;13.60;12.20;;;;;;;7.48;59.70;99775.88;10499320;28;20047;-73
2023/03/19 01:21:20;;;;;;;12.65;11.45;;;;;;;7.72;57.91;99770.94;10480789;28;20052;-73
2023/03/19 01:26:24;;;;;;;12.98;11.77;;;;;;;7.44;59.23;99765.53;10481679;28;20094;-73
2023/03/19 01:31:30;;;;;;;14.35;12.98;;;;;;;7.31;59.51;99770.16;10481348;28;20135;-73
2023/03/19 01:36:58;;;;;;;14.38;12.98;;;;;;;7.54;58.52;99772.25;10480407;28;20439;-73
2023/03/19 01:42:05;;;;;;;14.18;12.88;;;;;;;7.53;58.67;99763.53;10497780;28;20052;-72
2023/03/19 01:47:33;;;;;;;13.68;12.30;;;;;;;7.55;59.09;99755.66;10480352;28;20402;-72
2023/03/19 01:52:52;;;;;;;14.43;12.43;;;;;;;7.47;59.21;99762.81;10480904;28;20044;-73
2023/03/19 01:58:24;;;;;;;14.07;12.73;;;;;;;7.44;59.98;99768.13;10487360;28;20040;-73
2023/03/19 02:03:45;;;;;;;14.50;13.00;;;;;;;7.38;60.10;99773.50;10507134;28;20053;-73
2023/03/19 02:08:52;;;;;;;17.38;13.30;;;;;;;7.43;59.58;99769.88;10506732;28;20060;-73
2023/03/19 02:13:53;;;;;;;14.38;12.80;;;;;;;7.58;58.96;99760.81;10488260;28;20045;-73
2023/03/19 02:18:56;;;;;;;15.23;13.68;;;;;;;7.38;59.84;99763.03;10487735;28;20044;-72
2023/03/19 02:24:11;;;;;;;15.75;13.77;;;;;;;7.40;59.31;99749.03;10487436;28;20079;-72
2023/03/19 02:29:34;;;;;;;14.23;12.90;;;;;;;7.55;58.51;99756.50;10498717;28;20044;-72
2023/03/19 02:34:39;;;;;;;13.82;12.63;;;;;;;7.42;59.37;99767.28;10487025;28;20052;-72
2023/03/19 02:40:10;;;;;;;15.20;13.70;;;;;;;7.15;60.42;99753.97;10487291;28;20067;-72
2023/03/19 02:45:12;;;;;;;15.32;13.93;;;;;;;7.43;58.99;99761.16;10504744;28;20045;-73
2023/03/19 02:50:14;;;;;;;15.18;13.73;;;;;;;7.49;58.31;99767.13;10486939;28;20049;-73
2023/03/19 02:55:17;;;;;;;14.43;13.05;;;;;;;7.45;58.75;99762.00;10505159;28;20048;-72
2023/03/19 03:00:19;;;;;;;15.02;12.60;;;;;;;7.26;59.25;99764.16;10504366;28;20040;-73
2023/03/19 03:05:21;;;;;;;14.43;12.95;;;;;;;7.08;60.30;99765.44;10486262;28;20132;-72
2023/03/19 03:10:23;;;;;;;14.13;12.80;;;;;;;6.83;61.16;99781.63;10503337;28;20040;-72
2023/03/19 03:15:25;;;;;;;15.38;13.40;;;;;;;6.75;61.60;99803.59;10502511;28;20045;-72
2023/03/19 03:20:27;;;;;;;14.05;12.75;;;;;;;6.79;61.80;99792.19;10486406;28;20071;-72
2023/03/19 03:25:29;;;;;;;14.15;12.73;;;;;;;7.04;60.87;99793.41;10503262;28;20044;-72
2023/03/19 03:30:31;;;;;;;14.70;13.30;;;;;;;7.06;60.46;99788.13;10485977;28;20483;-72
2023/03/19 03:35:33;;;;;;;14.25;12.95;;;;;;;6.83;61.35;99793.84;10503863;28;20128;-73
2023/03/19 03:40:35;;;;;;;13.68;12.27;;;;;;;6.69;61.56;99778.47;10485054;28;20052;-73
2023/03/19 03:45:37;;;;;;;14.45;13.00;;;;;;;7.08;60.31;99791.56;10484645;28;20051;-73
2023/03/19 03:50:39;;;;;;;14.10;12.70;;;;;;;6.99;60.45;99786.53;10484589;28;20048;-73
2023/03/19 03:55:44;;;;;;;13.80;12.32;;;;;;;6.99;60.38;99790.00;10484904;28;20519;-73
2023/03/19 04:00:47;;;;;;;14.27;12.35;;;;;;;7.12;59.81;99803.69;10485402;28;20048;-73
2023/03/19 04:05:50;;;;;;;14.63;13.23;;;;;;;7.22;59.42;99791.28;10484306;28;20045;-73
2023/03/19 04:10:52;;;;;;;16.13;13.13;;;;;;;7.07;59.57;99795.06;10484444;28;20057;-73
2023/03/19 04:15:54;;;;;;;14.65;13.35;;;;;;;6.96;60.34;99782.25;10501771;28;20041;-73
2023/03/19 04:20:57;;;;;;;15.38;13.98;;;;;;;6.80;61.11;99786.91;10483097;28;20044;-74
2023/03/19 04:26:01;;;;;;;14.20;12.80;;;;;;;7.05;59.44;99776.81;10483664;28;20094;-73
2023/03/19 04:31:06;;;;;;;13.85;12.55;;;;;;;6.98;60.13;99782.22;10483330;28;20044;-73
2023/03/19 04:36:12;;;;;;;14.38;13.02;;;;;;;6.90;60.24;99787.59;10483001;28;20066;-73
2023/03/19 04:41:17;;;;;;;14.20;11.88;;;;;;;6.90;60.95;99791.94;10482814;28;20464;-73
2023/03/19 04:46:33;;;;;;;13.73;12.45;;;;;;;6.89;60.16;99785.00;10482474;28;20048;-73
2023/03/19 04:51:36;;;;;;;14.23;12.93;;;;;;;6.96;59.90;99784.00;10482147;28;20056;-72
2023/03/19 04:56:38;;;;;;;14.00;12.70;;;;;;;6.87;59.73;99792.03;10482528;28;20044;-72
2023/03/19 05:01:40;;;;;;;13.52;12.18;;;;;;;6.79;60.31;99786.97;10481723;28;20060;-74
2023/03/19 05:06:45;;;;;;;12.82;11.45;;;;;;;6.86;59.55;99788.53;10482342;28;20045;-73
2023/03/19 05:11:47;;;;;;;13.25;11.95;;;;;;;6.70;60.47;99798.44;10481234;28;20047;-74
2023/03/19 05:16:53;;;;;;;14.23;12.85;;;;;;;6.80;59.73;99788.69;10481401;28;20131;-73
2023/03/19 05:21:56;;;;;;;13.23;11.93;;;;;;;6.57;60.66;99799.59;10481365;28;20465;-72
2023/03/19 05:26:59;;;;;;;13.88;12.23;;;;;;;6.62;60.61;99799.50;10482184;28;20576;-72
2023/03/19 05:32:15;;;;;;;16.03;12.27;;;;;;;6.31;62.08;99790.47;10481442;28;20059;-72
2023/03/19 05:37:18;;;;;;;13.02;11.73;;;;;;;6.30;62.45;99788.75;10480599;28;20052;-73
2023/03/19 05:42:26;;;;;;;14.13;12.65;;;;;;;6.28;62.56;99798.34;10482890;28;20052;-73
2023/03/19 05:47:30;;;;;;;16.77;13.13;;;;;;;6.40;62.45;99801.66;10481022;28;20040;-72
2023/03/19 05:52:32;;;;;;;12.15;10.95;;;;;;;6.31;62.64;99811.38;10480426;28;20555;-72
2023/03/19 05:57:35;;;;;;;14.30;12.90;;;;;;;6.61;61.51;99808.22;10480239;28;20090;-72
2023/03/19 06:02:43;;;;;;;14.15;12.30;;;;;;;6.81;60.48;99819.13;10465243;28;20131;-72
2023/03/19 06:07:51;;;;;;;13.02;11.82;;;;;;;6.61;61.43;99823.91;10499697;28;20047;-72
2023/03/19 06:13:01;;;;;;;13.27;12.07;;;;;;;6.80;60.47;99826.09;10499929;28;20044;-73
2023/03/19 06:18:16;;;;;;;12.60;11.45;;;;;;;6.91;59.75;99822.44;10481249;28;20040;-72
2023/03/19 06:23:18;;;;;;;12.88;11.68;;;;;;;6.87;60.10;99815.56;10481594;28;20052;-72
2023/03/19 06:28:21;;;;;;;13.80;12.43;;;;;;;7.01;59.16;99814.38;10490721;28;20086;-73
2023/03/19 06:33:26;;;;;;;16.35;12.07;;;;;;;7.17;58.58;99814.91;10481082;28;20045;-73
2023/03/19 06:38:28;;;;;;;13.10;11.90;;;;;;;7.18;58.63;99821.00;10480646;28;20128;-73
2023/03/19 06:43:31;;;;;;;12.40;11.20;;;;;;;7.40;57.16;99822.25;10499164;28;20094;-73
2023/03/19 06:48:33;;;;;;;12.20;10.98;;;;;;;7.53;57.40;99818.47;10486620;28;20037;-73
2023/03/19 06:53:35;;;;;;;13.25;11.95;;;;;;;7.79;55.29;99820.50;10506947;28;20448;-73
2023/03/19 06:58:37;;;;;;;13.02;11.82;;;;;;;7.67;56.35;99826.00;10505379;28;20076;-74
2023/03/19 07:03:39;;;;;;;16.65;15.05;;;;;;;7.82;56.65;99838.72;10486973;28;20063;-73
2023/03/19 07:08:45;;;;;;;13.35;12.15;;;;;;;8.13;54.96;99837.09;10505219;28;20039;-72
2023/03/19 07:13:47;;;;;;;13.80;10.95;;;;;;;8.21;54.36;99848.25;10504522;28;20044;-73
2023/03/19 07:18:48;;;;;;;11.50;10.30;;;;;;;8.10;54.81;99843.28;10505013;28;20037;-74
2023/03/19 07:23:50;;;;;;;12.63;11.25;;;;;;;8.21;54.21;99850.88;10503858;28;20094;-73
2023/03/19 07:28:52;;;;;;;11.73;10.52;;;;;;;8.28;54.93;99855.06;10503676;28;20048;-72
2023/03/19 07:33:54;;;;;;;13.50;12.30;;;;;;;8.28;54.52;99858.53;10504026;28;20492;-72
2023/03/19 07:38:56;;;;;;;14.63;12.07;;;;;;;8.66;53.37;99851.47;10503654;28;20068;-73
2023/03/19 07:43:58;;;;;;;13.20;11.85;;;;;;;8.90;53.94;99851.69;10503341;28;20048;-72
2023/03/19 07:49:00;;;;;;;13.68;11.07;;;;;;;8.96;53.73;99856.78;10504021;28;20461;-72
2023/03/19 07:54:02;;;;;;;11.95;10.90;;;;;;;9.25;51.56;99856.81;10503001;28;20045;-73
2023/03/19 07:59:04;;;;;;;10.88;9.90;;;;;;;9.37;52.08;99850.34;10502324;28;20036;-73
2023/03/19 08:04:07;;;;;;;14.18;11.00;;;;;;;9.49;52.60;99851.75;10485138;28;20533;-74
2023/03/19 08:09:08;;;;;;;12.95;11.65;;;;;;;9.86;50.25;99848.81;10484123;28;20071;-72
2023/03/19 08:14:10;;;;;;;11.88;10.88;;;;;;;9.85;50.40;99860.25;10499358;28;20078;-73
2023/03/19 08:19:12;;;;;;;11.48;10.38;;;;;;;9.84;49.66;99855.91;10481562;28;20036;-72
2023/03/19 08:24:14;;;;;;;11.55;10.45;;;;;;;10.27;49.67;99857.16;10499405;28;20448;-72
2023/03/19 08:29:16;;;;;;;11.10;10.10;;;;;;;10.39;47.60;99858.50;10501504;28;20036;-72
2023/03/19 08:34:20;;;;;;;10.13;9.25;;;;;;;10.41;49.43;99849.69;10484120;28;20040;-72
2023/03/19 08:39:22;;;;;;;11.63;9.80;;;;;;;10.59;47.77;99861.34;10492892;28;20043;-72
2023/03/19 08:44:24;;;;;;;10.80;9.80;;;;;;;11.03;46.91;99859.75;10501431;28;20132;-73
2023/03/19 08:49:26;;;;;;;11.27;10.18;;;;;;;10.97;48.03;99864.38;10501945;28;20092;-72
2023/03/19 08:54:28;;;;;;;10.00;9.10;;;;;;;11.15;47.67;99858.44;10501827;28;20413;-72
2023/03/19 08:59:30;;;;;;;11.75;10.60;;;;;;;11.56;46.60;99856.88;10501576;28;20086;-73
2023/03/19 09:04:37;;;;;;;13.10;11.80;;;;;;;11.78;46.13;99862.19;10500643;28;20449;-72
2023/03/19 09:09:40;;;;;;;11.60;10.55;;;;;;;11.49;46.39;99862.44;10514079;28;20047;-73
2023/03/19 09:14:42;;;;;;;11.85;10.70;;;;;;;12.01;44.93;99863.06;10508067;28;20041;-73
2023/03/19 09:19:44;;;;;;;11.20;10.13;;;;;;;11.98;46.46;99865.81;10507490;28;20115;-72
2023/03/19 09:24:46;;;;;;;10.68;9.65;;;;;;;12.31;44.49;99863.59;10507758;28;20051;-73
2023/03/19 09:29:47;;;;;;;10.45;9.45;;;;;;;12.47;44.69;99864.66;10499726;28;20058;-72
2023/03/19 09:34:49;;;;;;;10.63;9.63;;;;;;;12.71;44.35;99872.47;10499837;28;20059;-73
2023/03/19 09:39:51;;;;;;;13.02;9.70;;;;;;;12.62;44.96;99865.78;10500001;28;20047;-73
2023/03/19 09:44:53;;;;;;;11.73;10.63;;;;;;;12.74;44.65;99857.34;10512290;22;20060;-71
2023/03/19 09:49:58;;;;;;;10.60;9.55;;;;;;;13.22;43.80;99858.75;10457096;28;20076;-70
2023/03/19 09:55:09;;;;;;;10.95;9.95;;;;;;;13.37;43.90;99852.78;10498592;28;20044;-71
2023/03/19 10:00:26;;;;;;;11.70;10.50;;;;;;;13.23;43.12;99852.53;10499192;28;20047;-71
2023/03/19 10:05:44;;;;;;;14.32;13.15;;;;;;;13.72;43.08;99844.13;10529554;28;20044;-71
2023/03/19 10:11:23;;;;;;;11.13;10.18;;;;;;;13.69;42.75;99841.66;10540480;28;20040;-70
2023/03/19 10:16:27;;;;;;;10.38;9.48;;;;;;;13.91;42.13;99842.31;10540691;28;20068;-71
2023/03/19 10:21:52;;;;;;;11.02;9.57;;;;;;;14.34;41.79;99840.19;10526301;28;20081;-71
2023/03/19 10:27:01;;;;;;;11.02;10.02;;;;;;;14.99;41.26;99838.59;10538270;28;20524;-71
2023/03/19 10:32:26;;;;;;;15.43;9.90;;;;;;;15.69;41.04;99839.25;10548316;28;20408;-70
2023/03/19 10:37:29;;;;;;;13.05;10.02;;;;;;;15.57;39.05;99838.09;10547474;28;20374;-70
2023/03/19 10:42:38;;;;;;;11.90;10.65;;;;;;;15.62;40.83;99845.78;10538993;28;20392;-71
2023/03/19 10:47:42;;;;;;;11.18;10.13;;;;;;;15.73;40.05;99842.59;10497957;28;20040;-71
2023/03/19 10:52:45;;;;;;;12.30;11.20;;;;;;;15.91;39.94;99833.59;10512115;28;20363;-69
2023/03/19 10:57:49;;;;;;;10.93;9.93;;;;;;;16.29;38.26;99827.84;10526939;28;20036;-69
2023/03/19 11:02:53;;;;;;;14.45;10.27;;;;;;;15.79;39.15;99832.47;10547859;28;20044;-68
2023/03/19 11:08:05;;;;;;;11.18;10.07;;;;;;;15.76;39.53;99830.03;10546190;28;20040;-69
2023/03/19 11:13:21;;;;;;;9.95;9.15;;;;;;;15.64;39.42;99828.06;10546406;28;20044;-69
2023/03/19 11:18:29;;;;;;;10.48;9.48;;;;;;;15.85;39.05;99828.66;10545373;28;20049;-69
2023/03/19 11:23:38;;;;;;;13.98;10.18;;;;;;;15.88;39.65;99820.50;10547956;28;20385;-70
2023/03/19 11:28:41;;;;;;;10.82;9.77;;;;;;;16.13;40.84;99818.16;10527958;28;20048;-69
2023/03/19 11:33:56;;;;;;;10.85;9.85;;;;;;;16.77;38.85;99823.25;10525663;28;20054;-69
2023/03/19 11:39:13;;;;;;;11.07;9.70;;;;;;;16.81;38.99;99820.31;10545302;28;20040;-69
2023/03/19 11:44:22;;;;;;;10.35;9.45;;;;;;;16.67;39.53;99819.44;10544421;28;20040;-69
2023/03/19 11:49:36;;;;;;;10.57;9.68;;;;;;;17.11;39.07;99816.75;10546217;28;20123;-69
2023/03/19 11:55:12;;;;;;;47.83;41.85;;;;;;;17.19;38.24;99822.44;10544338;28;20553;-69
2023/03/19 12:00:24;;;;;;;12.52;11.45;;;;;;;16.98;37.73;99814.00;10544082;28;20040;-69
2023/03/19 12:05:32;;;;;;;11.68;10.57;;;;;;;16.91;37.89;99812.69;10544651;28;20075;-69
2023/03/19 12:10:52;;;;;;;10.70;9.80;;;;;;;16.88;38.12;99812.84;10527615;28;20478;-70
2023/03/19 12:16:21;;;;;;;11.65;10.65;;;;;;;17.04;38.05;99816.25;10525459;28;20127;-70
2023/03/19 12:22:03;;;;;;;10.88;9.73;;;;;;;17.11;38.97;99806.97;10525018;28;20059;-70
2023/03/19 12:27:55;;;;;;;10.80;9.70;;;;;;;17.17;38.24;99810.19;10531574;28;20127;-70
2023/03/19 12:33:33;;;;;;;11.48;10.38;;;;;;;17.21;38.00;99806.41;10485237;28;20062;-69
2023/03/19 12:38:42;;;;;;;9.95;9.05;;;;;;;16.68;40.43;99806.06;10544721;28;20115;-70
2023/03/19 12:44:16;;;;;;;11.38;10.35;;;;;;;16.75;39.27;99803.94;10542289;28;20040;-69
2023/03/19 12:49:45;;;;;;;11.18;10.18;;;;;;;16.81;41.21;99803.56;10516551;28;20598;-69
2023/03/19 12:54:58;;;;;;;11.48;10.38;;;;;;;16.72;39.98;99796.13;10522963;28;20051;-70
2023/03/19 13:00:12;;;;;;;25.52;23.02;;;;;;;16.65;39.96;99804.47;10523845;28;20123;-70
2023/03/19 13:05:21;;;;;;;32.30;29.33;;;;;;;16.67;40.52;99801.72;10540833;28;20044;-70
2023/03/19 13:10:24;;;;;;;10.57;9.68;;;;;;;16.73;40.03;99800.50;10522393;28;20412;-69
2023/03/19 13:15:41;;;;;;;10.95;9.10;;;;;;;17.01;39.81;99805.00;10541924;28;20039;-69
2023/03/19 13:20:50;;;;;;;11.98;10.77;;;;;;;16.65;39.24;99807.13;10542168;28;20098;-68
2023/03/19 13:25:55;;;;;;;11.13;10.20;;;;;;;16.47;40.38;99800.28;10541459;28;20513;-69
2023/03/19 13:31:00;;;;;;;10.32;9.52;;;;;;;16.64;40.95;99801.88;10540946;28;20048;-69
2023/03/19 13:36:06;;;;;;;15.02;10.43;;;;;;;16.69;40.50;99799.84;10521834;28;20451;-69
2023/03/19 13:41:38;;;;;;;11.63;10.63;;;;;;;16.38;40.84;99801.66;10539993;28;20105;-68
2023/03/19 13:46:43;;;;;;;10.80;9.70;;;;;;;16.11;42.07;99798.84;10539950;28;20070;-69
2023/03/19 13:51:49;;;;;;;12.53;11.43;;;;;;;16.55;40.40;99797.97;10539525;28;20040;-69
2023/03/19 13:56:55;;;;;;;11.65;10.55;;;;;;;16.36;40.95;99794.72;10546188;28;20367;-69
2023/03/19 14:01:58;;;;;;;12.13;10.97;;;;;;;15.95;42.29;99800.66;10548204;28;20071;-69
2023/03/19 14:07:18;;;;;;;12.07;10.90;;;;;;;16.04;42.28;99800.13;10549381;28;20032;-69
2023/03/19 14:12:39;;;;;;;11.82;10.73;;;;;;;15.88;42.94;99797.50;10548195;28;20036;-69
2023/03/19 14:17:49;;;;;;;10.85;9.95;;;;;;;16.18;42.57;99804.63;10547935;28;20055;-69
2023/03/19 14:23:15;;;;;;;13.23;12.02;;;;;;;16.25;41.67;99794.53;10529334;28;20043;-68
2023/03/19 14:28:23;;;;;;;16.63;10.65;;;;;;;15.64;43.27;99796.25;10548688;28;20042;-69
2023/03/19 14:33:33;;;;;;;12.40;11.20;;;;;;;15.63;44.19;99797.19;10547846;28;20040;-69
2023/03/19 14:38:39;;;;;;;11.45;10.15;;;;;;;15.91;44.83;99787.69;10547629;28;20085;-68
2023/03/19 14:44:23;;;;;;;11.07;10.18;;;;;;;16.03;44.38;99793.13;10546466;28;20056;-69
2023/03/19 14:49:53;;;;;;;16.58;11.52;;;;;;;16.16;44.10;99795.94;10524638;28;20127;-69
2023/03/19 14:55:01;;;;;;;12.52;11.43;;;;;;;16.38;42.85;99787.56;10546925;28;20055;-69
2023/03/19 15:00:06;;;;;;;14.65;11.70;;;;;;;16.19;44.50;99800.19;10546283;28;20040;-69
2023/03/19 15:05:13;;;;;;;10.73;9.73;;;;;;;16.33;43.05;99797.56;10545138;28;20067;-68
2023/03/19 15:10:23;;;;;;;12.48;11.15;;;;;;;16.48;42.92;99794.00;10546768;28;20040;-69
2023/03/19 15:15:50;;;;;;;11.02;9.88;;;;;;;16.29;43.87;99809.28;10545694;28;20456;-68
2023/03/19 15:20:53;;;;;;;11.63;5.70;;;;;;;16.14;50.22;99803.09;10544989;28;20142;-68
2023/03/19 15:26:03;;;;;;;7.30;6.47;;;;;;;15.86;51.28;99804.69;10544896;28;20050;-68
2023/03/19 15:31:05;;;;;;;3.40;1.90;;;;;;;15.77;56.05;99812.31;10544581;28;20572;-69
2023/03/19 15:36:31;;;;;;;3.47;2.08;;;;;;;15.53;59.25;99809.22;10545355;28;20051;-69
2023/03/19 15:41:46;;;;;;;3.23;2.20;;;;;;;15.08;61.67;99816.94;10545685;28;20051;-68
2023/03/19 15:46:49;;;;;;;3.20;2.42;;;;;;;15.22;61.27;99818.00;10494885;22;20051;-75
2023/03/19 15:51:57;;;;;;;3.47;1.50;;;;;;;15.05;62.26;99821.53;10460929;28;20075;-72
2023/03/19 15:56:59;;;;;;;4.30;2.38;;;;;;;14.92;64.08;99833.72;10485940;28;20036;-73
2023/03/19 16:02:10;;;;;;;4.65;2.42;;;;;;;14.72;65.06;99824.19;10504232;28;20102;-73
2023/03/19 16:07:42;;;;;;;5.78;4.75;;;;;;;14.86;66.13;99840.19;10503165;28;20119;-76
2023/03/19 16:12:48;;;;;;;7.85;7.30;;;;;;;14.48;69.76;99843.03;10502663;28;20398;-74
2023/03/19 16:17:50;;;;;;;3.63;2.03;;;;;;;14.39;71.06;99852.25;10483091;28;20070;-75
2023/03/19 16:22:55;;;;;;;3.70;1.95;;;;;;;14.16;73.40;99854.31;10507061;28;20051;-73
2023/03/19 16:27:57;;;;;;;2.25;1.65;;;;;;;13.98;75.68;99859.56;10519382;28;20045;-74
2023/03/19 16:33:03;;;;;;;2.65;1.60;;;;;;;13.81;76.64;99864.81;10533117;28;20044;-75
2023/03/19 16:38:21;;;;;;;2.08;1.88;;;;;;;13.51;79.93;99875.06;10543849;28;20485;-73
2023/03/19 16:43:24;;;;;;;4.28;1.92;;;;;;;13.56;79.33;99881.84;10543453;28;20060;-75
2023/03/19 16:48:25;;;;;;;3.17;2.03;;;;;;;13.52;80.26;99893.47;10542483;28;20549;-74
2023/03/19 16:53:30;;;;;;;3.65;1.95;;;;;;;13.39;81.67;99897.59;10524123;28;20524;-74
2023/03/19 16:58:41;;;;;;;3.30;1.92;;;;;;;13.29;84.62;99894.53;10511686;28;20437;-74
2023/03/19 17:03:44;;;;;;;2.03;1.65;;;;;;;13.06;84.92;99894.66;10499960;28;20040;-74
2023/03/19 17:08:46;;;;;;;2.42;1.73;;;;;;;13.05;85.44;99899.06;10481865;28;20051;-74
2023/03/19 17:13:48;;;;;;;2.60;2.00;;;;;;;12.80;86.13;99899.28;10500019;28;20048;-74
2023/03/19 17:18:50;;;;;;;4.13;2.03;;;;;;;12.75;85.91;99900.38;10502087;28;20047;-74
2023/03/19 17:23:53;;;;;;;2.40;1.70;;;;;;;12.82;83.77;99902.69;10501550;28;20052;-75
2023/03/19 17:28:56;;;;;;;3.83;2.05;;;;;;;12.56;85.88;99911.72;10500753;28;20033;-74
2023/03/19 17:34:09;;;;;;;5.50;1.98;;;;;;;12.52;86.06;99907.50;10482238;28;20044;-74
2023/03/19 17:39:10;;;;;;;2.45;1.98;;;;;;;12.58;85.91;99916.94;10481637;28;20045;-74
2023/03/19 17:44:13;;;;;;;2.33;1.80;;;;;;;12.43;86.75;99907.03;10499145;28;20068;-74
2023/03/19 17:49:21;;;;;;;2.58;1.70;;;;;;;12.24;89.40;99912.19;10500018;28;20083;-74
2023/03/19 17:54:25;;;;;;;3.13;1.90;;;;;;;12.12;90.83;99911.75;10483669;28;20394;-73
2023/03/19 17:59:27;;;;;;;2.50;1.63;;;;;;;12.08;91.68;99910.16;10499417;28;20041;-73
2023/03/19 18:04:29;;;;;;;2.05;1.50;;;;;;;11.91;93.93;99923.16;10483489;28;20444;-74
2023/03/19 18:09:32;;;;;;;4.43;1.75;;;;;;;11.71;96.15;99921.25;10498924;28;20036;-74
2023/03/19 18:14:34;;;;;;;2.58;1.48;;;;;;;11.65;98.29;99918.88;10499366;28;20128;-74
2023/03/19 18:19:37;;;;;;;2.13;1.75;;;;;;;11.63;100.00;99924.16;10481481;28;20067;-73
2023/03/19 18:24:39;;;;;;;2.95;1.73;;;;;;;11.43;100.00;99920.59;10499915;28;20052;-75
2023/03/19 18:29:41;;;;;;;3.15;1.55;;;;;;;11.28;100.00;99932.50;10481589;28;20044;-74
2023/03/19 18:34:43;;;;;;;3.28;1.40;;;;;;;11.26;100.00;99934.34;10500269;28;20054;-74
2023/03/19 18:39:45;;;;;;;3.47;1.63;;;;;;;11.26;100.00;99931.72;10499253;28;20034;-73
2023/03/19 18:44:47;;;;;;;5.68;2.10;;;;;;;11.14;100.00;99937.41;10492440;28;20036;-74
2023/03/19 18:49:49;;;;;;;4.97;2.47;;;;;;;11.15;100.00;99936.50;10507537;28;20036;-75
2023/03/19 18:54:51;;;;;;;3.92;1.83;;;;;;;11.09;100.00;99929.69;10490751;28;20040;-74
2023/03/19 18:59:52;;;;;;;2.92;1.80;;;;;;;11.14;100.00;99942.69;10533794;28;20043;-74
2023/03/19 19:04:55;;;;;;;3.60;1.88;;;;;;;11.24;100.00;99947.53;10549241;28;20460;-75
2023/03/19 19:09:57;;;;;;;7.45;3.33;;;;;;;11.27;100.00;99946.59;10549531;28;20036;-74
2023/03/19 19:15:02;;;;;;;3.30;2.95;;;;;;;11.11;100.00;99944.53;10539869;28;20127;-74
2023/03/19 19:20:05;;;;;;;3.23;2.70;;;;;;;11.12;100.00;99953.28;10507590;28;20044;-73
2023/03/19 19:25:08;;;;;;;3.15;2.47;;;;;;;11.14;100.00;99955.84;10547802;28;20047;-74
2023/03/19 19:30:19;;;;;;;3.55;3.00;;;;;;;11.01;100.00;99952.78;10547837;28;20468;-74
2023/03/19 19:35:24;;;;;;;3.65;2.90;;;;;;;11.00;100.00;99957.19;10546452;28;20134;-74
2023/03/19 19:40:30;;;;;;;2.70;2.40;;;;;;;11.05;100.00;99962.28;10546067;28;20040;-74
2023/03/19 19:45:36;;;;;;;3.58;2.88;;;;;;;11.03;100.00;99958.84;10546035;28;20394;-74
2023/03/19 19:50:38;;;;;;;5.10;3.53;;;;;;;11.05;100.00;99967.53;10545441;28;20089;-74
2023/03/19 19:55:41;;;;;;;3.20;2.90;;;;;;;10.96;100.00;99967.84;10544765;28;20054;-74
2023/03/19 20:00:42;;;;;;;4.10;3.60;;;;;;;10.84;100.00;99969.97;10545760;28;20146;-74
2023/03/19 20:05:54;;;;;;;3.60;3.03;;;;;;;10.82;100.00;99973.59;10526939;28;20044;-76
2023/03/19 20:10:56;;;;;;;3.50;3.20;;;;;;;10.86;100.00;99973.44;10510430;28;20489;-74
2023/03/19 20:15:58;;;;;;;3.88;3.58;;;;;;;10.85;100.00;99982.25;10526872;28;20043;-74
2023/03/19 20:21:01;;;;;;;3.80;3.45;;;;;;;10.85;100.00;99984.88;10525903;28;20040;-74
2023/03/19 20:26:02;;;;;;;3.80;3.42;;;;;;;10.82;100.00;99986.72;10544083;28;20076;-74
2023/03/19 20:31:05;;;;;;;4.75;4.35;;;;;;;10.81;100.00;99987.66;10525475;28;20040;-74
2023/03/19 20:36:12;;;;;;;3.75;3.35;;;;;;;10.88;100.00;99986.50;10525163;28;20068;-75
2023/03/19 20:41:21;;;;;;;3.45;3.15;;;;;;;10.87;100.00;99982.19;10542987;28;20047;-74
2023/03/19 20:46:23;;;;;;;4.43;3.30;;;;;;;10.85;100.00;99989.28;10542728;28;20406;-74
2023/03/19 20:51:30;;;;;;;4.45;3.30;;;;;;;10.90;100.00;99984.72;10542670;28;20089;-74
2023/03/19 20:56:36;;;;;;;3.88;3.42;;;;;;;10.98;100.00;99987.06;10543689;28;20474;-73
2023/03/19 21:01:38;;;;;;;4.23;3.17;;;;;;;10.85;100.00;99991.91;10543035;28;20058;-74
2023/03/19 21:06:40;;;;;;;4.60;4.05;;;;;;;10.73;100.00;99987.03;10542469;28;20051;-75
2023/03/19 21:11:53;;;;;;;4.32;3.72;;;;;;;10.54;100.00;99986.78;10526494;28;20055;-75
2023/03/19 21:16:55;;;;;;;3.45;2.85;;;;;;;10.39;100.00;99982.88;10542184;28;20123;-74
2023/03/19 21:21:57;;;;;;;3.17;2.60;;;;;;;10.30;100.00;99984.03;10542017;28;20078;-74
2023/03/19 21:26:59;;;;;;;3.30;2.50;;;;;;;10.25;100.00;99980.69;10541764;28;20055;-74
2023/03/19 21:32:10;;;;;;;3.47;3.17;;;;;;;10.15;100.00;99978.38;10542971;28;20038;-74
2023/03/19 21:37:11;;;;;;;3.80;3.45;;;;;;;10.04;100.00;99979.53;10541906;28;20127;-74
2023/03/19 21:42:21;;;;;;;3.78;3.15;;;;;;;9.93;100.00;99980.78;10522607;28;20040;-75
2023/03/19 21:47:24;;;;;;;4.30;3.28;;;;;;;9.82;100.00;99978.47;10493693;22;20239;-73
2023/03/19 21:52:26;;;;;;;3.33;3.03;;;;;;;9.72;100.00;99982.28;10500511;28;20047;-73
2023/03/19 21:57:28;;;;;;;3.45;3.15;;;;;;;9.71;100.00;99977.94;10500869;28;20048;-72
2023/03/19 22:02:39;;;;;;;4.13;3.65;;;;;;;9.68;100.00;99985.88;10501788;28;20048;-74
2023/03/19 22:07:40;;;;;;;5.63;4.47;;;;;;;9.63;100.00;99980.75;10503631;28;20095;-72
2023/03/19 22:12:45;;;;;;;4.75;4.35;;;;;;;9.58;100.00;99966.91;10501089;28;20135;-73
2023/03/19 22:17:48;;;;;;;5.55;5.05;;;;;;;9.94;100.00;99980.72;10505677;28;20045;-72
2023/03/19 22:22:51;;;;;;;5.38;4.85;;;;;;;9.56;100.00;99984.47;10508558;28;20059;-73
2023/03/19 22:27:52;;;;;;;5.22;4.72;;;;;;;9.36;100.00;99985.03;10510127;28;20037;-72
2023/03/19 22:32:56;;;;;;;5.53;5.03;;;;;;;9.31;100.00;99984.31;10491695;28;20040;-72
2023/03/19 22:37:58;;;;;;;6.15;5.65;;;;;;;9.35;100.00;99986.78;10488678;28;20584;-72
2023/03/19 22:42:59;;;;;;;5.28;4.78;;;;;;;9.34;100.00;99989.44;10506441;28;20048;-73
2023/03/19 22:48:01;;;;;;;6.25;5.72;;;;;;;9.55;100.00;99991.47;10505690;28;20387;-72
2023/03/19 22:53:18;;;;;;;5.72;5.22;;;;;;;9.52;100.00;99978.47;10511279;28;20123;-72
2023/03/19 22:58:20;;;;;;;5.80;5.03;;;;;;;9.94;100.00;99982.50;10507007;28;20051;-72
2023/03/19 23:03:29;;;;;;;5.40;5.00;;;;;;;9.55;100.00;99975.72;10506496;28;20048;-72
2023/03/19 23:08:31;;;;;;;6.18;5.70;;;;;;;9.46;100.00;99983.84;10507322;28;20051;-72
2023/03/19 23:13:33;;;;;;;6.28;5.78;;;;;;;9.33;100.00;99980.72;10508844;28;20049;-71
2023/03/19 23:18:37;;;;;;;5.65;5.22;;;;;;;9.32;100.00;99981.63;10504232;28;20379;-71
2023/03/19 23:23:39;;;;;;;6.53;5.97;;;;;;;9.31;100.00;99976.44;10504265;28;20068;-71
2023/03/19 23:28:41;;;;;;;7.93;7.22;;;;;;;9.46;100.00;99972.50;10503702;28;20603;-72